Indigo — 6YTG6 — position and weather

sailwx.info

Track history (hours):
 
Tides and Currents Weather Stations Pressure Air Temp Water Temp Dewpoint Dewpoint Depression Visibility Wind Speed Wind Dir Waves Ship Positions

Indigo

Last reported at 2017-Oct-14 01:18 UTC. Time now 2017-Oct-22 17:51 UTC.
Position N 38°21' E 000°41'.
Warning: this ship's position is 8 days out of date.

Length 27 m; draft 2.8 m.

Type: Ship. MMSI: 339632000.

Date/timePositionNaut miles runAvg speedWind from/ knotsBaromVisibWave heightAir tempDewpointWater temp
2017-Oct-14 01:18N 38°21' E 000°41'3 9.3
2017-Oct-14 01:00N 38°21' E 000°45'7 8.9
2017-Oct-14 00:14N 38°21' E 000°53'2 8.8
2017-Oct-13 23:59N 38°21' E 000°56'4 8.6
2017-Oct-13 23:28N 38°21' E 001°02'4 8.1
2017-Oct-13 23:00N 38°21' E 001°07'12 8.4
2017-Oct-13 21:31N 38°21' E 001°23'0 8.7
2017-Oct-13 21:30N 38°21' E 001°23'28 9.4
2017-Oct-13 18:27N 38°22' E 001°59'4 9.4
2017-Oct-13 18:00N 38°22' E 002°04'5 9.4
2017-Oct-13 17:30N 38°22' E 002°11'5 9.2
2017-Oct-13 17:00N 38°22' E 002°16'5 9.2
2017-Oct-13 16:30N 38°22' E 002°22'5 9.3
2017-Oct-13 16:00N 38°22' E 002°28'7 9.2
2017-Oct-13 15:12N 38°23' E 002°38'2 9.3
2017-Oct-13 14:56N 38°23' E 002°41'4 9.3
2017-Oct-13 14:29N 38°23' E 002°46'5 9.2
2017-Oct-13 13:59N 38°23' E 002°52'12 9.0
2017-Oct-13 12:39N 38°23' E 003°07'6 9.1
2017-Oct-13 12:02N 38°23' E 003°14'0 9.1
2017-Oct-13 12:00N 38°23' E 003°15'  
2017-Oct-10 22:28N 38°43' E 014°55'5 8.7
2017-Oct-10 21:51N 38°43' E 015°01'4 8.6
2017-Oct-10 21:21N 38°43' E 015°07'5 8.5
2017-Oct-10 20:47N 38°40' E 015°12'3 8.7
2017-Oct-10 20:24N 38°37' E 015°15'3 8.8
2017-Oct-10 20:00N 38°35' E 015°18'4 8.8
2017-Oct-10 19:30N 38°32' E 015°22'4 8.7
2017-Oct-10 19:00N 38°29' E 015°26'  
2017-Oct-07 15:34N 38°11' E 022°58'2 6.8
2017-Oct-07 15:17N 38°09' E 022°58'5 7.7
2017-Oct-07 14:34N 38°06' E 022°52'1 7.8
2017-Oct-07 14:29N 38°06' E 022°51'6 5.8
2017-Oct-07 13:32N 38°00' E 022°51'1 8.2
2017-Oct-07 13:24N 37°60' E 022°52'3 8.3
2017-Oct-07 13:00N 37°58' E 022°56'4 7.5
2017-Oct-07 12:25N 37°55' E 023°00'3 7.1
2017-Oct-07 12:00N 37°54' E 023°04'5 9.2
2017-Oct-07 11:30N 37°53' E 023°09'5 9.1
2017-Oct-07 11:00N 37°53' E 023°15'5 9.1
2017-Oct-07 10:30N 37°52' E 023°21'5 9.0
2017-Oct-07 10:00N 37°51' E 023°26'4 8.7
2017-Oct-07 09:30N 37°50' E 023°32'4 8.4
2017-Oct-07 09:00N 37°53' E 023°35'4 7.3
2017-Oct-07 08:30N 37°56' E 023°39'0 0.9
2017-Oct-07 08:00N 37°56' E 023°39'0 0.0
2017-Oct-07 07:30N 37°56' E 023°39'0 0.0
2017-Oct-07 07:00N 37°56' E 023°39'0 0.0
2017-Oct-07 06:30N 37°56' E 023°39'0 0.0
2017-Oct-07 06:00N 37°56' E 023°39'0 0.0
2017-Oct-07 05:30N 37°56' E 023°39'0 0.0
2017-Oct-07 05:00N 37°56' E 023°39'0 0.0
2017-Oct-07 04:30N 37°56' E 023°39'0 0.0
2017-Oct-07 03:57N 37°56' E 023°39'0 0.0
2017-Oct-07 03:30N 37°56' E 023°39'0 0.0
2017-Oct-07 03:00N 37°56' E 023°39'0 0.0
2017-Oct-07 02:30N 37°56' E 023°39'0 0.0
2017-Oct-07 02:00N 37°56' E 023°39'0 0.0
2017-Oct-07 01:24N 37°56' E 023°39'0 0.0
2017-Oct-07 01:00N 37°56' E 023°39'0 0.0
2017-Oct-07 00:30N 37°56' E 023°39'0 0.0
2017-Oct-07 00:00N 37°56' E 023°39'0 0.0
2017-Oct-06 23:30N 37°56' E 023°39'0 0.0
2017-Oct-06 23:00N 37°56' E 023°39'0 0.0
2017-Oct-06 22:30N 37°56' E 023°39'0 0.0
2017-Oct-06 21:57N 37°56' E 023°39'0 0.0
2017-Oct-06 21:30N 37°56' E 023°39'0 0.0
2017-Oct-06 21:00N 37°56' E 023°39'0 0.0
2017-Oct-06 20:30N 37°56' E 023°39'0 0.0
2017-Oct-06 19:57N 37°56' E 023°39'0 0.0
2017-Oct-06 19:30N 37°56' E 023°39'0 0.0
2017-Oct-06 19:00N 37°56' E 023°39'0 0.0
2017-Oct-06 18:30N 37°56' E 023°39'0 0.0
2017-Oct-06 18:00N 37°56' E 023°39'0 0.0
2017-Oct-06 17:30N 37°56' E 023°39'0 0.0
2017-Oct-06 17:00N 37°56' E 023°39'0 0.0
2017-Oct-06 16:30N 37°56' E 023°39'0 0.0
2017-Oct-06 16:00N 37°56' E 023°39'0 0.0
2017-Oct-06 15:30N 37°56' E 023°39'0 0.0
2017-Oct-06 15:00N 37°56' E 023°39'0 0.0
2017-Oct-06 14:30N 37°56' E 023°39'0 0.0
2017-Oct-06 14:00N 37°56' E 023°39'0 0.0
2017-Oct-06 13:30N 37°56' E 023°39'0 0.0
2017-Oct-06 13:00N 37°56' E 023°39'0 0.0
2017-Oct-06 12:30N 37°56' E 023°39'0 0.0
2017-Oct-06 12:00N 37°56' E 023°39'0 0.0
2017-Oct-06 11:30N 37°56' E 023°39'0 0.0
2017-Oct-06 11:00N 37°56' E 023°39'0 0.0
2017-Oct-06 10:30N 37°56' E 023°39'0 0.0
2017-Oct-06 10:00N 37°56' E 023°39'0 0.0
2017-Oct-06 09:30N 37°56' E 023°39'0 0.0
2017-Oct-06 09:00N 37°56' E 023°39'0 0.0
2017-Oct-06 08:30N 37°56' E 023°39'0 0.0
2017-Oct-06 08:00N 37°56' E 023°39'0 0.0
2017-Oct-06 07:30N 37°56' E 023°39'0 0.0
2017-Oct-06 07:00N 37°56' E 023°39'0 0.0
2017-Oct-06 06:27N 37°56' E 023°39'0 0.0
2017-Oct-06 06:00N 37°56' E 023°39'0 0.0
2017-Oct-06 05:30N 37°56' E 023°39'0 0.0
2017-Oct-06 05:00N 37°56' E 023°39'0 0.0
2017-Oct-06 04:30N 37°56' E 023°39'0 0.0
2017-Oct-06 04:00N 37°56' E 023°39'0 0.0
2017-Oct-06 03:30N 37°56' E 023°39'0 0.0
2017-Oct-06 03:00N 37°56' E 023°39'0 0.0
2017-Oct-06 02:30N 37°56' E 023°39'0 0.0
2017-Oct-06 02:00N 37°56' E 023°39'0 0.0
2017-Oct-06 01:30N 37°56' E 023°39'0 0.0
2017-Oct-06 01:00N 37°56' E 023°39'0 0.0
2017-Oct-06 00:30N 37°56' E 023°39'0 0.0
2017-Oct-06 00:00N 37°56' E 023°39'0 0.0
2017-Oct-05 23:30N 37°56' E 023°39'0 0.0
2017-Oct-05 23:00N 37°56' E 023°39'0 0.0
2017-Oct-05 22:30N 37°56' E 023°39'0 0.0
2017-Oct-05 22:00N 37°56' E 023°39'0 0.0
2017-Oct-05 21:30N 37°56' E 023°39'0 0.0
2017-Oct-05 21:00N 37°56' E 023°39'0 0.0
2017-Oct-05 20:30N 37°56' E 023°39'0 0.0
2017-Oct-05 20:00N 37°56' E 023°39'0 0.0
2017-Oct-05 19:30N 37°56' E 023°39'0 0.0
2017-Oct-05 19:00N 37°56' E 023°39'0 0.0
2017-Oct-05 18:30N 37°56' E 023°39'0 0.0
2017-Oct-05 18:00N 37°56' E 023°39'0 0.0
2017-Oct-05 17:30N 37°56' E 023°39'0 0.0
2017-Oct-05 17:00N 37°56' E 023°39'0 0.0
2017-Oct-05 15:30N 37°56' E 023°39'0 0.0
2017-Oct-05 15:00N 37°56' E 023°39'0 0.0
2017-Oct-05 14:30N 37°56' E 023°39'0 0.0
2017-Oct-05 14:00N 37°56' E 023°39'0 0.0
2017-Oct-05 13:30N 37°56' E 023°39'0 0.0
2017-Oct-05 13:00N 37°56' E 023°39'0 0.0
2017-Oct-05 12:30N 37°56' E 023°39'0 0.0
2017-Oct-05 12:00N 37°56' E 023°39'0 0.0
2017-Oct-05 11:30N 37°56' E 023°39'0 0.0
2017-Oct-05 11:00N 37°56' E 023°39'0 0.0
2017-Oct-05 10:30N 37°56' E 023°39'0 0.0
2017-Oct-05 10:00N 37°56' E 023°39'0 0.0
2017-Oct-05 09:30N 37°56' E 023°39'0 0.0
2017-Oct-05 09:00N 37°56' E 023°39'0 0.0
2017-Oct-05 08:30N 37°56' E 023°39'0 0.0
2017-Oct-05 08:00N 37°56' E 023°39'0 0.0
2017-Oct-05 07:30N 37°56' E 023°39'0 0.0
2017-Oct-05 06:57N 37°56' E 023°39'0 0.0
2017-Oct-05 06:30N 37°56' E 023°39'0 0.0
2017-Oct-05 06:00N 37°56' E 023°39'0 0.0
2017-Oct-05 05:30N 37°56' E 023°39'0 0.0
2017-Oct-05 05:00N 37°56' E 023°39'0 0.0
2017-Oct-05 04:30N 37°56' E 023°39'0 0.0
2017-Oct-05 04:00N 37°56' E 023°39'0 0.0
2017-Oct-05 03:30N 37°56' E 023°39'0 0.0
2017-Oct-05 03:00N 37°56' E 023°39'0 0.0
2017-Oct-05 02:30N 37°56' E 023°39'0 0.0
2017-Oct-05 02:00N 37°56' E 023°39'0 0.0
2017-Oct-05 01:30N 37°56' E 023°39'0 0.0
2017-Oct-05 01:00N 37°56' E 023°39'0 0.0
2017-Oct-05 00:30N 37°56' E 023°39'0 0.0
2017-Oct-05 00:00N 37°56' E 023°39'0 0.0
2017-Oct-04 23:30N 37°56' E 023°39'0 0.0
2017-Oct-04 23:00N 37°56' E 023°39'0 0.0
2017-Oct-04 22:30N 37°56' E 023°39'0 0.0
2017-Oct-04 22:00N 37°56' E 023°39'0 0.0
2017-Oct-04 21:30N 37°56' E 023°39'0 0.0
2017-Oct-04 21:00N 37°56' E 023°39'0 0.0
2017-Oct-04 20:30N 37°56' E 023°39'0 0.0
2017-Oct-04 20:00N 37°56' E 023°39'0 0.0
2017-Oct-04 19:30N 37°56' E 023°39'0 0.0
2017-Oct-04 19:00N 37°56' E 023°39'0 0.0
2017-Oct-04 18:30N 37°56' E 023°39'0 0.0
2017-Oct-04 18:00N 37°56' E 023°39'0 0.0
2017-Oct-04 17:30N 37°56' E 023°39'0 0.0
2017-Oct-04 17:00N 37°56' E 023°39'0 0.0
2017-Oct-04 16:30N 37°56' E 023°39'0 0.0
2017-Oct-04 16:00N 37°56' E 023°39'0 0.0
2017-Oct-04 15:30N 37°56' E 023°39'0 0.0
2017-Oct-04 15:00N 37°56' E 023°39'0 0.0
2017-Oct-04 14:27N 37°56' E 023°39'0 0.0
2017-Oct-04 14:00N 37°56' E 023°39'0 0.0
2017-Oct-04 13:30N 37°56' E 023°39'0 0.0
2017-Oct-04 13:00N 37°56' E 023°39'0 0.0
2017-Oct-04 12:30N 37°56' E 023°39'0 0.0
2017-Oct-04 12:00N 37°56' E 023°39'0 0.0
2017-Oct-04 11:30N 37°56' E 023°39'0 0.0
2017-Oct-04 11:00N 37°56' E 023°39'0 0.0
2017-Oct-04 10:30N 37°56' E 023°39'0 0.0
2017-Oct-04 09:57N 37°56' E 023°39'0 0.0
2017-Oct-04 09:27N 37°56' E 023°39'0 0.0
2017-Oct-04 09:00N 37°56' E 023°39'0 0.0
2017-Oct-04 08:30N 37°56' E 023°39'0 0.0
2017-Oct-04 08:00N 37°56' E 023°39'0 0.0
2017-Oct-04 07:30N 37°56' E 023°39'0 0.0
2017-Oct-04 07:00N 37°56' E 023°39'0 0.0
2017-Oct-04 06:30N 37°56' E 023°39'0 0.0
2017-Oct-04 06:00N 37°56' E 023°39'0 0.0
2017-Oct-04 05:30N 37°56' E 023°39'0 0.0
2017-Oct-04 05:00N 37°56' E 023°39'0 0.0
2017-Oct-04 04:30N 37°56' E 023°39'0 0.0
2017-Oct-04 04:00N 37°56' E 023°39'0 0.0
2017-Oct-04 03:30N 37°56' E 023°39'0 0.0
2017-Oct-04 03:00N 37°56' E 023°39'0 0.0
2017-Oct-04 02:30N 37°56' E 023°39'0 0.0
2017-Oct-04 02:01N 37°56' E 023°39'0 0.0
2017-Oct-04 01:30N 37°56' E 023°39'  
Track history (hours):
 
Tides and Currents Weather Stations Pressure Air Temp Water Temp Dewpoint Dewpoint Depression Visibility Wind Speed Wind Dir Waves Ship Positions

Indigo

Last reported at 2017-Oct-14 01:18 UTC. Time now 2017-Oct-22 17:51 UTC.
Position N 38°21' E 000°41'.
Warning: this ship's position is 8 days out of date.

Length 27 m; draft 2.8 m.

Type: Ship. MMSI: 339632000.

Date/timePositionNaut miles runAvg speedWind from/ knotsBaromVisibWave heightAir tempDewpointWater temp
2017-Oct-14 01:18N 38°21' E 000°41'3 9.3
2017-Oct-14 01:00N 38°21' E 000°45'7 8.9
2017-Oct-14 00:14N 38°21' E 000°53'2 8.8
2017-Oct-13 23:59N 38°21' E 000°56'4 8.6
2017-Oct-13 23:28N 38°21' E 001°02'4 8.1
2017-Oct-13 23:00N 38°21' E 001°07'12 8.4
2017-Oct-13 21:31N 38°21' E 001°23'0 8.7
2017-Oct-13 21:30N 38°21' E 001°23'28 9.4
2017-Oct-13 18:27N 38°22' E 001°59'4 9.4
2017-Oct-13 18:00N 38°22' E 002°04'5 9.4
2017-Oct-13 17:30N 38°22' E 002°11'5 9.2
2017-Oct-13 17:00N 38°22' E 002°16'5 9.2
2017-Oct-13 16:30N 38°22' E 002°22'5 9.3
2017-Oct-13 16:00N 38°22' E 002°28'7 9.2
2017-Oct-13 15:12N 38°23' E 002°38'2 9.3
2017-Oct-13 14:56N 38°23' E 002°41'4 9.3
2017-Oct-13 14:29N 38°23' E 002°46'5 9.2
2017-Oct-13 13:59N 38°23' E 002°52'12 9.0
2017-Oct-13 12:39N 38°23' E 003°07'6 9.1
2017-Oct-13 12:02N 38°23' E 003°14'0 9.1
2017-Oct-13 12:00N 38°23' E 003°15'  
2017-Oct-10 22:28N 38°43' E 014°55'5 8.7
2017-Oct-10 21:51N 38°43' E 015°01'4 8.6
2017-Oct-10 21:21N 38°43' E 015°07'5 8.5
2017-Oct-10 20:47N 38°40' E 015°12'3 8.7
2017-Oct-10 20:24N 38°37' E 015°15'3 8.8
2017-Oct-10 20:00N 38°35' E 015°18'4 8.8
2017-Oct-10 19:30N 38°32' E 015°22'4 8.7
2017-Oct-10 19:00N 38°29' E 015°26'  
2017-Oct-07 15:34N 38°11' E 022°58'2 6.8
2017-Oct-07 15:17N 38°09' E 022°58'5 7.7
2017-Oct-07 14:34N 38°06' E 022°52'1 7.8
2017-Oct-07 14:29N 38°06' E 022°51'6 5.8
2017-Oct-07 13:32N 38°00' E 022°51'1 8.2
2017-Oct-07 13:24N 37°60' E 022°52'3 8.3
2017-Oct-07 13:00N 37°58' E 022°56'4 7.5
2017-Oct-07 12:25N 37°55' E 023°00'3 7.1
2017-Oct-07 12:00N 37°54' E 023°04'5 9.2
2017-Oct-07 11:30N 37°53' E 023°09'5 9.1
2017-Oct-07 11:00N 37°53' E 023°15'5 9.1
2017-Oct-07 10:30N 37°52' E 023°21'5 9.0
2017-Oct-07 10:00N 37°51' E 023°26'4 8.7
2017-Oct-07 09:30N 37°50' E 023°32'4 8.4
2017-Oct-07 09:00N 37°53' E 023°35'4 7.3
2017-Oct-07 08:30N 37°56' E 023°39'0 0.9
2017-Oct-07 08:00N 37°56' E 023°39'0 0.0
2017-Oct-07 07:30N 37°56' E 023°39'0 0.0
2017-Oct-07 07:00N 37°56' E 023°39'0 0.0
2017-Oct-07 06:30N 37°56' E 023°39'0 0.0
2017-Oct-07 06:00N 37°56' E 023°39'0 0.0
2017-Oct-07 05:30N 37°56' E 023°39'0 0.0
2017-Oct-07 05:00N 37°56' E 023°39'0 0.0
2017-Oct-07 04:30N 37°56' E 023°39'0 0.0
2017-Oct-07 03:57N 37°56' E 023°39'0 0.0
2017-Oct-07 03:30N 37°56' E 023°39'0 0.0
2017-Oct-07 03:00N 37°56' E 023°39'0 0.0
2017-Oct-07 02:30N 37°56' E 023°39'0 0.0
2017-Oct-07 02:00N 37°56' E 023°39'0 0.0
2017-Oct-07 01:24N 37°56' E 023°39'0 0.0
2017-Oct-07 01:00N 37°56' E 023°39'0 0.0
2017-Oct-07 00:30N 37°56' E 023°39'0 0.0
2017-Oct-07 00:00N 37°56' E 023°39'0 0.0
2017-Oct-06 23:30N 37°56' E 023°39'0 0.0
2017-Oct-06 23:00N 37°56' E 023°39'0 0.0
2017-Oct-06 22:30N 37°56' E 023°39'0 0.0
2017-Oct-06 21:57N 37°56' E 023°39'0 0.0
2017-Oct-06 21:30N 37°56' E 023°39'0 0.0
2017-Oct-06 21:00N 37°56' E 023°39'0 0.0
2017-Oct-06 20:30N 37°56' E 023°39'0 0.0
2017-Oct-06 19:57N 37°56' E 023°39'0 0.0
2017-Oct-06 19:30N 37°56' E 023°39'0 0.0
2017-Oct-06 19:00N 37°56' E 023°39'0 0.0
2017-Oct-06 18:30N 37°56' E 023°39'0 0.0
2017-Oct-06 18:00N 37°56' E 023°39'0 0.0
2017-Oct-06 17:30N 37°56' E 023°39'0 0.0
2017-Oct-06 17:00N 37°56' E 023°39'0 0.0
2017-Oct-06 16:30N 37°56' E 023°39'0 0.0
2017-Oct-06 16:00N 37°56' E 023°39'0 0.0
2017-Oct-06 15:30N 37°56' E 023°39'0 0.0
2017-Oct-06 15:00N 37°56' E 023°39'0 0.0
2017-Oct-06 14:30N 37°56' E 023°39'0 0.0
2017-Oct-06 14:00N 37°56' E 023°39'0 0.0
2017-Oct-06 13:30N 37°56' E 023°39'0 0.0
2017-Oct-06 13:00N 37°56' E 023°39'0 0.0
2017-Oct-06 12:30N 37°56' E 023°39'0 0.0
2017-Oct-06 12:00N 37°56' E 023°39'0 0.0
2017-Oct-06 11:30N 37°56' E 023°39'0 0.0
2017-Oct-06 11:00N 37°56' E 023°39'0 0.0
2017-Oct-06 10:30N 37°56' E 023°39'0 0.0
2017-Oct-06 10:00N 37°56' E 023°39'0 0.0
2017-Oct-06 09:30N 37°56' E 023°39'0 0.0
2017-Oct-06 09:00N 37°56' E 023°39'0 0.0
2017-Oct-06 08:30N 37°56' E 023°39'0 0.0
2017-Oct-06 08:00N 37°56' E 023°39'0 0.0
2017-Oct-06 07:30N 37°56' E 023°39'0 0.0
2017-Oct-06 07:00N 37°56' E 023°39'0 0.0
2017-Oct-06 06:27N 37°56' E 023°39'0 0.0
2017-Oct-06 06:00N 37°56' E 023°39'0 0.0
2017-Oct-06 05:30N 37°56' E 023°39'0 0.0
2017-Oct-06 05:00N 37°56' E 023°39'0 0.0
2017-Oct-06 04:30N 37°56' E 023°39'0 0.0
2017-Oct-06 04:00N 37°56' E 023°39'0 0.0
2017-Oct-06 03:30N 37°56' E 023°39'0 0.0
2017-Oct-06 03:00N 37°56' E 023°39'0 0.0
2017-Oct-06 02:30N 37°56' E 023°39'0 0.0
2017-Oct-06 02:00N 37°56' E 023°39'0 0.0
2017-Oct-06 01:30N 37°56' E 023°39'0 0.0
2017-Oct-06 01:00N 37°56' E 023°39'0 0.0
2017-Oct-06 00:30N 37°56' E 023°39'0 0.0
2017-Oct-06 00:00N 37°56' E 023°39'0 0.0
2017-Oct-05 23:30N 37°56' E 023°39'0 0.0
2017-Oct-05 23:00N 37°56' E 023°39'0 0.0
2017-Oct-05 22:30N 37°56' E 023°39'0 0.0
2017-Oct-05 22:00N 37°56' E 023°39'0 0.0
2017-Oct-05 21:30N 37°56' E 023°39'0 0.0
2017-Oct-05 21:00N 37°56' E 023°39'0 0.0
2017-Oct-05 20:30N 37°56' E 023°39'0 0.0
2017-Oct-05 20:00N 37°56' E 023°39'0 0.0
2017-Oct-05 19:30N 37°56' E 023°39'0 0.0
2017-Oct-05 19:00N 37°56' E 023°39'0 0.0
2017-Oct-05 18:30N 37°56' E 023°39'0 0.0
2017-Oct-05 18:00N 37°56' E 023°39'0 0.0
2017-Oct-05 17:30N 37°56' E 023°39'0 0.0
2017-Oct-05 17:00N 37°56' E 023°39'0 0.0
2017-Oct-05 15:30N 37°56' E 023°39'0 0.0
2017-Oct-05 15:00N 37°56' E 023°39'0 0.0
2017-Oct-05 14:30N 37°56' E 023°39'0 0.0
2017-Oct-05 14:00N 37°56' E 023°39'0 0.0
2017-Oct-05 13:30N 37°56' E 023°39'0 0.0
2017-Oct-05 13:00N 37°56' E 023°39'0 0.0
2017-Oct-05 12:30N 37°56' E 023°39'0 0.0
2017-Oct-05 12:00N 37°56' E 023°39'0 0.0
2017-Oct-05 11:30N 37°56' E 023°39'0 0.0
2017-Oct-05 11:00N 37°56' E 023°39'0 0.0
2017-Oct-05 10:30N 37°56' E 023°39'0 0.0
2017-Oct-05 10:00N 37°56' E 023°39'0 0.0
2017-Oct-05 09:30N 37°56' E 023°39'0 0.0
2017-Oct-05 09:00N 37°56' E 023°39'0 0.0
2017-Oct-05 08:30N 37°56' E 023°39'0 0.0
2017-Oct-05 08:00N 37°56' E 023°39'0 0.0
2017-Oct-05 07:30N 37°56' E 023°39'0 0.0
2017-Oct-05 06:57N 37°56' E 023°39'0 0.0
2017-Oct-05 06:30N 37°56' E 023°39'0 0.0
2017-Oct-05 06:00N 37°56' E 023°39'0 0.0
2017-Oct-05 05:30N 37°56' E 023°39'0 0.0
2017-Oct-05 05:00N 37°56' E 023°39'0 0.0
2017-Oct-05 04:30N 37°56' E 023°39'0 0.0
2017-Oct-05 04:00N 37°56' E 023°39'0 0.0
2017-Oct-05 03:30N 37°56' E 023°39'0 0.0
2017-Oct-05 03:00N 37°56' E 023°39'0 0.0
2017-Oct-05 02:30N 37°56' E 023°39'0 0.0
2017-Oct-05 02:00N 37°56' E 023°39'0 0.0
2017-Oct-05 01:30N 37°56' E 023°39'0 0.0
2017-Oct-05 01:00N 37°56' E 023°39'0 0.0
2017-Oct-05 00:30N 37°56' E 023°39'0 0.0
2017-Oct-05 00:00N 37°56' E 023°39'0 0.0
2017-Oct-04 23:30N 37°56' E 023°39'0 0.0
2017-Oct-04 23:00N 37°56' E 023°39'0 0.0
2017-Oct-04 22:30N 37°56' E 023°39'0 0.0
2017-Oct-04 22:00N 37°56' E 023°39'0 0.0
2017-Oct-04 21:30N 37°56' E 023°39'0 0.0
2017-Oct-04 21:00N 37°56' E 023°39'0 0.0
2017-Oct-04 20:30N 37°56' E 023°39'0 0.0
2017-Oct-04 20:00N 37°56' E 023°39'0 0.0
2017-Oct-04 19:30N 37°56' E 023°39'0 0.0
2017-Oct-04 19:00N 37°56' E 023°39'0 0.0
2017-Oct-04 18:30N 37°56' E 023°39'0 0.0
2017-Oct-04 18:00N 37°56' E 023°39'0 0.0
2017-Oct-04 17:30N 37°56' E 023°39'0 0.0
2017-Oct-04 17:00N 37°56' E 023°39'0 0.0
2017-Oct-04 16:30N 37°56' E 023°39'0 0.0
2017-Oct-04 16:00N 37°56' E 023°39'0 0.0
2017-Oct-04 15:30N 37°56' E 023°39'0 0.0
2017-Oct-04 15:00N 37°56' E 023°39'0 0.0
2017-Oct-04 14:27N 37°56' E 023°39'0 0.0
2017-Oct-04 14:00N 37°56' E 023°39'0 0.0
2017-Oct-04 13:30N 37°56' E 023°39'0 0.0
2017-Oct-04 13:00N 37°56' E 023°39'0 0.0
2017-Oct-04 12:30N 37°56' E 023°39'0 0.0
2017-Oct-04 12:00N 37°56' E 023°39'0 0.0
2017-Oct-04 11:30N 37°56' E 023°39'0 0.0
2017-Oct-04 11:00N 37°56' E 023°39'0 0.0
2017-Oct-04 10:30N 37°56' E 023°39'0 0.0
2017-Oct-04 09:57N 37°56' E 023°39'0 0.0
2017-Oct-04 09:27N 37°56' E 023°39'0 0.0
2017-Oct-04 09:00N 37°56' E 023°39'0 0.0
2017-Oct-04 08:30N 37°56' E 023°39'0 0.0
2017-Oct-04 08:00N 37°56' E 023°39'0 0.0
2017-Oct-04 07:30N 37°56' E 023°39'0 0.0
2017-Oct-04 07:00N 37°56' E 023°39'0 0.0
2017-Oct-04 06:30N 37°56' E 023°39'0 0.0
2017-Oct-04 06:00N 37°56' E 023°39'0 0.0
2017-Oct-04 05:30N 37°56' E 023°39'0 0.0
2017-Oct-04 05:00N 37°56' E 023°39'0 0.0
2017-Oct-04 04:30N 37°56' E 023°39'0 0.0
2017-Oct-04 04:00N 37°56' E 023°39'0 0.0
2017-Oct-04 03:30N 37°56' E 023°39'0 0.0
2017-Oct-04 03:00N 37°56' E 023°39'0 0.0
2017-Oct-04 02:30N 37°56' E 023°39'0 0.0
2017-Oct-04 02:01N 37°56' E 023°39'0 0.0
2017-Oct-04 01:30N 37°56' E 023°39'  

Dump ship's entire track history